Latest Coastal Weather Observations for Cape Nelson

IDV60701

Issued at 2:41 pm EST Tuesday 25 April 2017 (issued every 10 minutes, with the page automatically refreshed every 10 minutes)

About coastal observations | Map of coastal stations | Coastal observations for VIC | Marine services | Other Formats
Station Details ID: 090184 Name: CAPE NELSON LIGHTHOUSE Lat: -38.43 Lon: 141.54 Height: 45.4 m
Data from the previous 72 hours. | See also: Recent months at Cape Nelson
Date/Time
EST
Temp
°C
Wind Pressure Rain since
9am
mm
Weather Cloud Vis
km
Sea
Height
m
Swell
Dir  Spd
kts
Gust
kts
hPa Trend Height
m
Period
s
Dir
25/02:30pm 17.2 WNW 11 15 1006.6 - 0.2 - - - - - - -
25/02:00pm 17.8 WNW 9 12 1006.9 - 0.2 - - - - - - -
25/01:30pm 18.0 WNW 10 15 1007.5 - 0.2 - - - - - - -
25/01:00pm 17.6 WNW 8 11 1008.0 - 0.2 - - - - - - -
25/12:30pm 16.5 W 7 12 1008.7 - 0.2 - - - - - - -
25/12:00pm 17.4 WNW 9 11 1009.0 - 0.0 - - - - - - -
25/11:30am 17.2 WNW 9 12 1009.7 - 0.0 - - - - - - -
25/11:00am 16.3 WNW 8 12 1009.8 - 0.0 - - - - - - -
25/10:30am 16.2 W 7 9 1009.9 - 0.0 - - - - - - -
25/10:00am 16.0 W 6 9 1010.0 - 0.0 - - - - - - -
25/09:30am 14.9 WNW 5 8 1010.1 - 0.0 - - - - - - -
25/09:00am 15.1 N 5 8 1010.4 - 8.4 - - - - - - -
25/08:30am 14.5 NE 6 9 1010.2 - 8.4 - - - - - - -
25/08:00am 14.4 NE 4 7 1009.9 - 8.4 - - - - - - -
25/07:30am 14.1 NNE 5 6 1009.6 - 8.4 - - - - - - -
25/07:00am 14.1 NE 5 9 1009.4 - 8.4 - - - - - - -
25/06:30am 14.8 W 8 10 1009.4 - 8.4 - - - - - - -
25/06:00am 14.4 W 5 7 1009.4 - 8.4 - - - - - - -
25/05:30am 14.3 NNE 3 5 1009.3 - 8.4 - - - - - - -
25/05:00am 14.1 SW 3 5 1009.1 - 8.4 - - - - - - -
25/04:30am 14.1 S 4 7 1009.0 - 8.4 - - - - - - -
25/04:00am 14.1 S 7 9 1009.3 - 8.2 - - - - - - -
25/03:30am 14.2 S 9 12 1009.3 - 7.2 - - - - - - -
25/03:00am 14.8 E 2 4 1009.3 - 6.8 Recent precip. - - - - - -
25/02:30am 14.6 CALM 0 0 1009.5 - 6.0 - - - - - - -
25/02:00am 14.7 CALM 0 0 1009.8 - 5.8 - - - - - - -
25/01:30am 14.8 ESE 3 4 1009.9 - 5.8 - - - - - - -
25/01:00am 14.8 ESE 4 5 1010.2 - 5.8 - - - - - - -
25/12:30am 14.9 ESE 5 6 1010.5 - 5.8 - - - - - - -
25/12:00am 15.0 E 5 6 1010.9 - 5.8 Recent precip. - - - - - -
 
Date/Time
EST
Temp
°C
Wind Pressure Rain since
9am
mm
Weather Cloud Vis
km
Sea
Height
m
Swell
Dir  Spd
kts
Gust
kts
hPa Trend Height
m
Period
s
Dir
24/11:30pm 15.0 E 6 8 1011.1 - 5.8 - - - - - - -
24/11:00pm 15.0 E 7 8 1011.6 - 5.6 - - - - - - -
24/10:30pm 15.1 E 7 9 1011.9 - 5.4 - - - - - - -
24/10:00pm 14.8 E 8 11 1012.1 - 5.4 - - - - - - -
24/09:30pm 14.9 E 10 12 1012.1 - 5.4 - - - - - - -
24/09:00pm 14.9 E 8 10 1012.4 - 5.4 - - - - - - -
24/08:30pm 14.8 E 9 11 1012.7 - 5.4 - - - - - - -
24/08:00pm 14.9 E 9 11 1013.1 - 5.4 - - - - - - -
24/07:30pm 14.7 E 9 11 1013.4 - 5.4 - - - - - - -
24/07:00pm 14.8 E 9 12 1013.5 - 5.4 - - - - - - -
24/06:30pm 14.9 E 8 9 1013.5 - 5.4 - - - - - - -
24/06:00pm 15.0 E 6 8 1013.7 - 5.4 Recent precip. - - - - - -
24/05:30pm 15.1 E 8 10 1013.6 - 5.2 - - - - - - -
24/05:00pm 15.1 E 8 11 1013.8 - 5.0 - - - - - - -
24/04:30pm 15.0 E 7 9 1014.1 - 4.8 - - - - - - -
24/04:00pm 15.0 E 7 10 1014.2 - 4.2 - - - - - - -
24/03:30pm 15.1 ENE 5 7 1014.7 - 2.6 - - - - - - -
24/03:00pm 15.1 ENE 5 7 1015.0 - 2.2 Rain - - - - - -
24/02:30pm 15.2 E 6 8 1015.1 - 1.6 - - - - - - -
24/02:00pm 15.4 NE 4 5 1015.9 - 1.0 - - - - - - -
24/01:30pm 15.6 NE 4 6 1016.3 - 0.4 - - - - - - -
24/01:00pm 15.6 NE 5 7 1016.9 - 0.0 - - - - - - -
24/12:30pm 15.6 ENE 5 7 1017.3 - 0.0 - - - - - - -
24/12:00pm 16.0 ENE 6 9 1017.7 - 0.0 - - - - - - -
24/11:30am 16.2 E 8 10 1018.0 - 0.0 - - - - - - -
24/11:00am 15.9 E 7 9 1018.5 - 0.0 - - - - - - -
24/10:30am 16.1 ENE 7 10 1019.0 - 0.0 - - - - - - -
24/10:00am 16.3 ENE 8 10 1019.3 - 0.0 - - - - - - -
24/09:30am 16.2 E 7 10 1019.4 - 0.0 - - - - - - -
24/09:00am 16.1 ENE 8 10 1019.6 - 0.0 - - - - - - -
24/08:30am 15.3 E 8 10 1019.9 - 0.0 - - - - - - -
24/08:00am 15.3 E 11 13 1019.8 - 0.0 - - - - - - -
24/07:30am 15.1 E 9 12 1020.1 - 0.0 - - - - - - -
24/07:00am 14.9 E 11 12 1020.2 - 0.0 - - - - - - -
24/06:30am 15.2 E 12 15 1020.2 - 0.0 - - - - - - -
24/06:00am 15.2 E 10 13 1020.4 - 0.0 - - - - - - -
24/05:30am 15.2 E 10 13 1020.3 - 0.0 - - - - - - -
24/05:00am 15.0 ESE 8 13 1020.5 - 0.0 - - - - - - -
24/04:30am 15.2 ESE 6 9 1020.9 - 0.0 - - - - - - -
24/04:00am 15.1 ESE 8 12 1020.7 - 0.0 - - - - - - -
24/03:30am 15.2 ESE 8 11 1021.3 - 0.0 - - - - - - -
24/03:00am 15.1 ESE 8 12 1021.4 - 0.0 - - - - - - -
24/02:30am 15.0 E 10 12 1021.9 - 0.0 - - - - - - -
24/02:00am 15.0 E 10 12 1022.0 - 0.0 - - - - - - -
24/01:30am 15.0 E 11 15 1022.1 - 0.0 - - - - - - -
24/01:00am 15.1 E 12 15 1022.4 - 0.0 - - - - - - -
24/12:30am 15.3 E 11 14 1022.6 - 0.0 - - - - - - -
24/12:00am 15.1 E 12 15 1022.6 - 0.0 - - - - - - -
 
Date/Time
EST
Temp
°C
Wind Pressure Rain since
9am
mm
Weather Cloud Vis
km
Sea
Height
m
Swell
Dir  Spd
kts
Gust
kts
hPa Trend Height
m
Period
s
Dir
23/11:30pm 15.0 E 12 17 1022.9 - 0.0 - - - - - - -
23/11:00pm 14.9 E 12 15 1023.1 - 0.0 - - - - - - -
23/10:30pm 15.2 E 13 16 1023.5 - 0.0 - - - - - - -
23/10:00pm 15.0 E 12 15 1023.7 - 0.0 - - - - - - -
23/09:30pm 15.1 E 11 14 1023.8 - 0.0 - - - - - - -
23/09:00pm 15.2 ESE 11 16 1023.6 - 0.0 - - - - - - -
23/08:30pm 15.2 ESE 10 15 1023.8 - 0.0 - - - - - - -
23/08:00pm 15.2 E 11 14 1023.9 - 0.0 - - - - - - -
23/07:30pm 15.2 E 11 13 1024.0 - 0.0 - - - - - - -
23/07:00pm 15.2 E 11 15 1024.0 - 0.0 - - - - - - -
23/06:30pm 15.3 ESE 11 15 1023.8 - 0.0 - - - - - - -
23/06:00pm 15.3 ESE 9 13 1023.7 - 0.0 - - - - - - -
23/05:30pm 15.3 E 9 12 1023.6 - 0.0 - - - - - - -
23/05:00pm 15.3 E 11 13 1023.6 - 0.0 - - - - - - -
23/04:30pm 15.5 ESE 9 13 1023.8 - 0.0 - - - - - - -
23/04:00pm 15.6 ESE 9 13 1023.9 - 0.0 - - - - - - -
23/03:30pm 15.6 ESE 10 15 1023.9 - 0.0 - - - - - - -
23/03:00pm 15.6 ESE 10 14 1023.8 - 0.0 - - - - - - -
23/02:30pm 15.6 ESE 10 15 1023.8 - 0.0 - - - - - - -
23/02:00pm 15.7 SE 11 15 1024.0 - 0.0 - - - - - - -
23/01:30pm 15.5 SE 13 16 1024.2 - 0.0 - - - - - - -
23/01:00pm 15.6 SE 10 13 1024.6 - 0.0 - - - - - - -
23/12:30pm 15.8 SE 11 15 1024.9 - 0.0 - - - - - - -
23/12:00pm 15.8 SE 12 15 1025.2 - 0.0 - - - - - - -
23/11:30am 15.8 SSE 11 14 1025.5 - 0.0 - - - - - - -
23/11:00am 15.6 SSE 12 15 1025.8 - 0.0 - - - - - - -
23/10:30am 15.4 SE 12 17 1026.0 - 0.0 - - - - - - -
23/10:00am 15.5 SSE 13 16 1026.0 - 0.0 - - - - - - -
23/09:30am 15.2 SSE 13 16 1026.1 - 0.0 - - - - - - -
23/09:00am 15.1 SSE 14 18 1025.9 - 0.2 Rain - - - - - -
23/08:30am 15.2 SSE 13 17 1025.8 - 0.0 - - - - - - -
23/08:00am 15.5 SSE 14 17 1025.6 - 0.0 - - - - - - -
23/07:30am 15.5 SE 12 17 1025.2 - 0.0 - - - - - - -
23/07:00am 15.5 SE 10 14 1025.1 - 0.0 - - - - - - -
23/06:30am 15.5 ESE 9 15 1024.8 - 0.0 - - - - - - -
23/06:00am 15.5 SE 11 15 1024.4 - 0.0 - - - - - - -
23/05:30am 15.5 SSE 13 16 1024.3 - 0.0 - - - - - - -
23/05:00am 15.5 SSE 13 17 1024.0 - 0.0 - - - - - - -
23/04:30am 15.5 SE 13 17 1024.1 - 0.0 - - - - - - -
23/04:00am 15.5 SE 12 17 1024.2 - 0.0 - - - - - - -
23/03:30am 15.5 SSE 14 18 1024.3 - 0.0 - - - - - - -
23/03:00am 15.5 SSE 15 19 1024.3 - 0.0 - - - - - - -
23/02:30am 15.5 SSE 14 19 1024.5 - 0.0 - - - - - - -
23/02:00am 15.5 SSE 14 17 1024.8 - 0.0 - - - - - - -
23/01:30am 15.7 SSE 13 17 1024.9 - 0.0 - - - - - - -
23/01:00am 15.8 SSE 12 15 1024.9 - 0.0 - - - - - - -
23/12:30am 15.6 SSE 14 19 1025.0 - 0.0 - - - - - - -
23/12:00am 15.9 SSE 13 17 1025.0 - 0.0 - - - - - - -
 
Date/Time
EST
Temp
°C
Wind Pressure Rain since
9am
mm
Weather Cloud Vis
km
Sea
Height
m
Swell
Dir  Spd
kts
Gust
kts
hPa Trend Height
m
Period
s
Dir
22/11:30pm 16.1 SE 13 18 1025.0 - 0.0 - - - - - - -
22/11:00pm 16.1 SE 13 16 1025.1 - 0.0 - - - - - - -
22/10:30pm 16.2 SE 10 13 1025.1 - 0.0 - - - - - - -
22/10:00pm 16.3 SE 11 17 1025.1 - 0.0 - - - - - - -
22/09:30pm 16.2 SE 11 14 1025.2 - 0.0 - - - - - - -
22/09:00pm 16.3 SE 11 14 1024.9 - 0.0 - - - - - - -
22/08:30pm 16.3 SSE 13 17 1024.8 - 0.0 - - - - - - -
22/08:00pm 16.2 SSE 12 16 1024.6 - 0.0 - - - - - - -
22/07:30pm 16.3 SSE 12 15 1024.4 - 0.0 - - - - - - -
22/07:00pm 16.3 SSE 10 13 1024.3 - 0.0 - - - - - - -
22/06:30pm 16.3 SSE 10 13 1024.1 - 0.0 - - - - - - -
22/06:00pm 16.4 S 10 13 1023.9 - 0.0 - - - - - - -
22/05:30pm 16.3 S 9 11 1023.7 - 0.0 - - - - - - -
22/05:00pm 16.5 S 7 10 1023.6 - 0.0 - - - - - - -
22/04:30pm 16.6 S 8 12 1023.5 - 0.0 - - - - - - -
22/04:00pm 16.7 S 8 11 1023.4 - 0.0 - - - - - - -
22/03:30pm 16.7 S 9 12 1023.4 - 0.0 - - - - - - -
22/03:00pm 16.7 S 7 11 1023.3 - 0.0 - - - - - - -

Other Formats:

Comma delimited format used in spreadsheet applications
http://www.bom.gov.au/fwo/IDV60701/IDV60701.94826.axf

JavaScript Object Notation format (JSON) in row-major order
http://www.bom.gov.au/fwo/IDV60701/IDV60701.94826.json